Port Angeles, WA

5:31 AM PDT on September 18, 2014 (GMT -0700)
4 miles up Deer Park Road | Change Station
CLOSE
Current Station
Personal Weather Station
Location: Port Angeles, WA
Elevation: 850 ft
Nearby Weather Stations
4.0 Earthquake: Seabeck, Washington (1 day ago)  

Elev 850 ft 48.05 °N, 123.34 °W | Updated 13 seconds ago

Overcast
Overcast
57.7 °F
Feels Like 57.7 °F
N
0.0
Wind Variable Wind from North
Gusts 0.0 mph

Today
High -- | Low -- °F
--% Chance of Precip.
Yesterday
High -- | Low -- °F
Precip. -- in
6:54 AM 7:19 PM
Waning Crescent, 27% visible
Pressure 29.74 in
Visibility 3.0 miles
Clouds Few 1300 ft
Mostly Cloudy 3200 ft
Overcast 4900 ft
Dew Point 53 °F
Humidity 83%
Rainfall 0.00 in
Snow Depth 0 in , 2 in , 0 in
UV 0 out of 12
Pollen .40 out of 12
PM2.5 Good
Flu Activity Not available.
SPECI KCLM 181124Z AUTO 23004KT 3SM -RA BR FEW013 BKN032 OVC049 14/13 A2974

More Conditions Fewer Conditions

Pressure 29.74 in
Visibility 3.0 miles
Clouds Few 1300 ft
Mostly Cloudy 3200 ft
Overcast 4900 ft
Dew Point 53 °F
Humidity 83%
Rainfall 0.00 in
Snow Depth 0 in , 2 in , 0 in
UV 0 out of 12
Pollen .40 out of 12
PM2.5 Good
Flu Activity Not available.
SPECI KCLM 181124Z AUTO 23004KT 3SM -RA BR FEW013 BKN032 OVC049 14/13 A2974

More Conditions Fewer Conditions

10-Day Weather Forecast

Almanac

Astronomy

Sep. 18, 2014 Rise Set
Actual Time 6:54 AM PDT 7:19 PM PDT
Civil Twilight 6:23 AM PDT 7:50 PM PDT
Nautical Twilight 5:46 AM PDT 8:26 PM PDT
Astronomical Twilight 5:08 AM PDT 9:04 PM PDT
Moon 1:34 AM PDT 4:29 PM PDT
Length of Visible Light 13h 26m
Length of Day
12h 24m
Tomorrow will be 3m 27s shorter.
Waning Crescent, 27% of the Moon is Illuminated
Today
Waning Crescent
Sep 24
New
Oct 1
First Quarter
Oct 8
Full
Oct 15
Last Quarter

Today's Extremes

State Highs State Lows

Community

WunderPhotos

Upload Photos

1,754,333 photos uploaded!

Nearby

Air Quality

  Air Quality AQ Index Pollutant
Yesterday Good
PM2.5
Current Good
PM2.5

Snow Depth

Station Depth Elevation
Grouse Camp 0 in 5380 ft
Sentinel Butte 2 in 4920 ft
Swift Creek 0 in 3770 ft
Lost Horse 0 in 5000 ft
Dungeness 0 in 4100 ft

Earthquake Activity

City Distance Mag. Time & Date
Seabeck, Washington 31 miles 4.0 3:06 AM PDT
2014-09-17
Morton, Washington 120 miles 3.0 5:43 AM PDT
2014-09-16
Minimum magnitude displayed is 2.5.

Coastal Water Temperatures

Place Temperature
Port Angeles, WA 51.1 °F
Friday Harbor, WA 53.1 °F
Port Townsend, WA 53.1 °F
La Push, WA 60.1 °F

Nearby Weather Stations